Time;durP1;ratioP1;P1;durP2;ratioP2;P2;SDS_P1;SDS_P2;PMS_P1;PMS_P2;Temp;Humidity;BMP_temperature;BMP_pressure;BME280_temperature;BME280_humidity;BME280_pressure;Samples;Min_cycle;Max_cycle;Signal;HPM_P1;HPM_P2
2023/09/01 00:00:46;;;;;;;0.32;0.32;;;11.10;99.90;;;;;;5093844;28;20084;-62
2023/09/01 00:03:13;;;;;;;1.13;0.70;;;10.90;99.90;;;;;;5093486;28;20073;-64
2023/09/01 00:05:38;;;;;;;;;;;10.60;99.90;;;;;;5094024;28;20044;-63
2023/09/01 00:08:05;;;;;;;0.20;0.20;;;10.80;99.90;;;;;;5093391;28;20378;-62
2023/09/01 00:10:31;;;;;;;0.28;0.28;;;10.70;99.90;;;;;;5093260;28;20101;-62
2023/09/01 00:12:57;;;;;;;0.40;0.40;;;10.70;99.90;;;;;;5093741;28;20112;-63
2023/09/01 00:15:23;;;;;;;0.40;0.40;;;10.40;99.90;;;;;;5092447;28;20059;-64
2023/09/01 00:17:49;;;;;;;0.65;0.65;;;10.80;99.90;;;;;;5093446;28;20044;-62
2023/09/01 00:20:15;;;;;;;0.32;0.32;;;10.70;99.90;;;;;;5093849;28;20118;-62
2023/09/01 00:22:40;;;;;;;0.40;0.40;;;10.60;99.90;;;;;;5093492;28;20476;-62
2023/09/01 00:25:07;;;;;;;0.43;0.43;;;10.60;99.90;;;;;;5093498;28;20079;-62
2023/09/01 00:27:32;;;;;;;;;;;10.50;99.90;;;;;;5093901;28;20067;-63
2023/09/01 00:29:58;;;;;;;0.20;0.20;;;10.70;99.90;;;;;;5093634;28;19924;-63
2023/09/01 00:32:23;;;;;;;0.30;0.30;;;10.60;99.90;;;;;;5092075;28;20048;-63
2023/09/01 00:34:58;;;;;;;0.82;0.82;;;10.30;99.90;;;;;;5093235;28;20048;-64
2023/09/01 00:37:24;;;;;;;0.40;0.40;;;10.40;99.90;;;;;;5093173;28;20051;-63
2023/09/01 00:39:50;;;;;;;0.38;0.38;;;10.30;99.90;;;;;;5093283;28;20051;-62
2023/09/01 00:42:16;;;;;;;0.20;0.20;;;10.70;99.90;;;;;;5093158;28;20052;-62
2023/09/01 00:44:41;;;;;;;0.30;0.30;;;10.50;99.90;;;;;;5091789;28;20129;-62
2023/09/01 00:47:08;;;;;;;0.25;0.25;;;10.50;99.90;;;;;;5093086;28;20052;-62
2023/09/01 00:49:35;;;;;;;;;;;10.20;99.90;;;;;;5093333;28;20192;-62
2023/09/01 00:52:01;;;;;;;;;;;10.40;99.90;;;;;;5093344;28;20007;-63
2023/09/01 00:54:26;;;;;;;0.35;0.35;;;10.60;99.90;;;;;;5092912;28;20386;-63
2023/09/01 00:56:54;;;;;;;0.28;0.28;;;10.40;99.90;;;;;;5092872;28;20051;-62
2023/09/01 00:59:20;;;;;;;0.38;0.38;;;10.60;99.90;;;;;;5091459;28;20170;-63
2023/09/01 01:01:47;;;;;;;9.25;0.55;;;10.80;99.90;;;;;;5092780;28;20134;-64
2023/09/01 01:04:15;;;;;;;0.40;0.40;;;10.20;99.90;;;;;;5092557;28;20056;-63
2023/09/01 01:06:59;;;;;;;0.38;0.38;;;10.60;99.90;;;;;;5092713;28;20059;-63
2023/09/01 01:09:27;;;;;;;0.40;0.40;;;10.50;99.90;;;;;;5091442;28;20047;-62
2023/09/01 01:12:14;;;;;;;0.40;0.40;;;10.60;99.90;;;;;;5091481;28;20120;-62
2023/09/01 01:14:43;;;;;;;;;;;10.20;99.90;;;;;;5092778;28;20479;-62
2023/09/01 01:17:09;;;;;;;0.40;0.40;;;10.40;99.90;;;;;;5092454;28;19931;-62
2023/09/01 01:19:35;;;;;;;;;;;10.40;99.90;;;;;;5092841;28;20094;-62
2023/09/01 01:22:03;;;;;;;0.10;0.10;;;10.10;99.90;;;;;;5092397;28;19959;-63
2023/09/01 01:24:29;;;;;;;0.20;0.20;;;10.50;99.90;;;;;;5092226;28;20484;-62
2023/09/01 01:26:55;;;;;;;0.35;0.35;;;10.30;99.90;;;;;;5092358;28;20044;-62
2023/09/01 01:29:20;;;;;;;0.38;0.38;;;10.10;99.90;;;;;;5090324;28;20537;-63
2023/09/01 01:31:46;;;;;;;0.30;0.30;;;10.20;99.90;;;;;;5092234;28;20369;-63
2023/09/01 01:34:24;;;;;;;0.20;0.20;;;10.30;99.90;;;;;;5092152;28;20069;-63
2023/09/01 01:37:01;;;;;;;0.30;0.30;;;10.20;99.90;;;;;;5092202;28;20087;-62
2023/09/01 01:39:27;;;;;;;;;;;10.20;99.90;;;;;;5092616;28;20056;-63
2023/09/01 01:42:10;;;;;;;0.20;0.20;;;10.10;99.90;;;;;;5091752;28;20380;-63
2023/09/01 01:44:42;;;;;;;0.20;0.20;;;10.10;99.90;;;;;;5091981;28;20496;-63
2023/09/01 01:47:09;;;;;;;0.20;0.20;;;10.00;99.90;;;;;;5091999;28;20055;-64
2023/09/01 01:49:34;;;;;;;;;;;9.90;99.90;;;;;;5092684;28;20094;-63
2023/09/01 01:52:00;;;;;;;0.35;0.32;;;10.00;99.90;;;;;;5092188;28;20405;-62
2023/09/01 01:54:27;;;;;;;;;;;10.20;99.90;;;;;;5092354;28;20048;-63
2023/09/01 01:56:52;;;;;;;0.20;0.20;;;9.90;99.90;;;;;;5091803;28;19920;-62
2023/09/01 01:59:18;;;;;;;0.30;0.30;;;10.00;99.90;;;;;;5091921;28;20048;-62
2023/09/01 02:01:44;;;;;;;0.50;0.50;;;9.80;99.90;;;;;;5092208;28;20116;-63
2023/09/01 02:04:10;;;;;;;0.30;0.30;;;10.00;99.90;;;;;;5091659;28;20059;-62
2023/09/01 02:06:35;;;;;;;;;;;10.00;99.90;;;;;;5091109;28;20158;-62
2023/09/01 02:09:03;;;;;;;1.60;0.38;;;10.20;99.90;;;;;;5091787;28;20014;-62
2023/09/01 02:11:29;;;;;;;0.25;0.25;;;9.70;99.90;;;;;;5091660;28;20560;-62
2023/09/01 02:13:56;;;;;;;0.20;0.20;;;9.90;99.90;;;;;;5090593;28;20055;-62
2023/09/01 02:16:25;;;;;;;1.20;0.40;;;9.80;99.90;;;;;;5091607;28;20052;-62
2023/09/01 02:18:50;;;;;;;0.57;0.57;;;10.20;99.90;;;;;;5091673;28;20044;-62
2023/09/01 02:21:20;;;;;;;0.50;0.50;;;9.90;99.90;;;;;;5091381;28;20059;-62
2023/09/01 02:23:49;;;;;;;0.22;0.22;;;10.20;99.90;;;;;;5090297;28;20044;-62
2023/09/01 02:26:22;;;;;;;0.30;0.30;;;9.90;99.90;;;;;;5091439;28;20083;-62
2023/09/01 02:28:49;;;;;;;0.50;0.50;;;9.80;99.90;;;;;;5091473;28;20135;-62
2023/09/01 02:31:15;;;;;;;0.35;0.35;;;10.00;99.90;;;;;;5091047;28;20047;-62
2023/09/01 02:33:41;;;;;;;0.40;0.40;;;9.50;99.90;;;;;;5090273;28;20761;-61
2023/09/01 02:36:25;;;;;;;0.30;0.30;;;10.20;99.90;;;;;;5091441;28;20122;-62
2023/09/01 02:38:52;;;;;;;0.30;0.30;;;9.90;99.90;;;;;;5091514;28;20052;-62
2023/09/01 02:41:19;;;;;;;0.32;0.32;;;9.50;99.90;;;;;;5095031;28;20052;-63
2023/09/01 02:43:45;;;;;;;0.60;0.60;;;9.50;99.90;;;;;;5095344;28;20040;-62
2023/09/01 02:46:11;;;;;;;;;;;9.90;99.90;;;;;;5095857;28;20369;-62
2023/09/01 02:48:37;;;;;;;0.55;0.55;;;9.70;99.90;;;;;;5095287;28;19924;-63
2023/09/01 02:51:04;;;;;;;0.47;0.47;;;9.80;99.90;;;;;;5095230;28;20131;-63
2023/09/01 02:53:31;;;;;;;0.30;0.30;;;9.80;99.90;;;;;;5095417;28;20083;-62
2023/09/01 02:55:57;;;;;;;0.30;0.30;;;9.90;99.90;;;;;;5095219;28;20052;-62
2023/09/01 02:58:23;;;;;;;1.58;0.50;;;9.60;99.90;;;;;;5093959;28;20442;-63
2023/09/01 03:00:49;;;;;;;0.40;0.40;;;10.00;99.90;;;;;;5095108;28;20106;-63
2023/09/01 03:03:14;;;;;;;0.20;0.20;;;9.50;99.90;;;;;;5094856;28;20503;-62
2023/09/01 03:05:40;;;;;;;0.45;0.45;;;9.70;99.90;;;;;;5095024;28;20400;-63
2023/09/01 03:08:06;;;;;;;0.30;0.30;;;9.30;99.90;;;;;;5094987;28;20104;-62
2023/09/01 03:10:32;;;;;;;1.20;0.55;;;9.80;99.90;;;;;;5094924;28;20059;-62
2023/09/01 03:12:58;;;;;;;3.97;0.68;;;9.90;99.90;;;;;;5094934;28;20040;-62
2023/09/01 03:15:23;;;;;;;1.75;0.63;;;9.90;99.90;;;;;;5093896;28;20048;-62
2023/09/01 03:17:49;;;;;;;0.63;0.63;;;9.70;99.90;;;;;;5094948;28;20121;-62
2023/09/01 03:20:16;;;;;;;0.30;0.30;;;9.70;99.90;;;;;;5095195;28;20055;-63
2023/09/01 03:22:41;;;;;;;0.30;0.30;;;9.60;99.90;;;;;;5095010;28;20048;-62
2023/09/01 03:25:11;;;;;;;0.40;0.40;;;9.60;99.90;;;;;;5094986;28;20050;-62
2023/09/01 03:27:37;;;;;;;0.30;0.30;;;9.50;99.90;;;;;;5094791;28;20055;-62
2023/09/01 03:30:04;;;;;;;0.50;0.50;;;9.80;99.90;;;;;;5094651;28;20040;-62
2023/09/01 03:32:30;;;;;;;0.38;0.38;;;9.30;99.90;;;;;;5094607;28;20058;-63
2023/09/01 03:34:56;;;;;;;0.28;0.28;;;9.50;99.90;;;;;;5094525;28;20044;-62
2023/09/01 03:37:22;;;;;;;0.20;0.20;;;9.60;99.90;;;;;;5094477;28;20127;-62
2023/09/01 03:39:48;;;;;;;;;;;9.60;99.90;;;;;;5094906;28;20494;-62
2023/09/01 03:42:14;;;;;;;0.30;0.30;;;9.40;99.90;;;;;;5094325;28;19981;-62
2023/09/01 03:44:39;;;;;;;0.25;0.25;;;9.10;99.90;;;;;;5094590;28;20044;-62
2023/09/01 03:47:06;;;;;;;0.38;0.38;;;9.20;99.90;;;;;;5094403;28;20090;-63
2023/09/01 03:49:31;;;;;;;0.40;0.40;;;9.40;99.90;;;;;;5094187;28;20047;-62
2023/09/01 03:51:58;;;;;;;0.28;0.28;;;9.80;99.90;;;;;;5093550;28;20051;-62
2023/09/01 03:54:24;;;;;;;0.75;0.70;;;9.40;99.90;;;;;;5094159;28;20048;-62
2023/09/01 03:56:50;;;;;;;0.52;0.52;;;9.70;99.90;;;;;;5094142;28;20377;-63
2023/09/01 03:59:16;;;;;;;0.30;0.30;;;9.40;99.90;;;;;;5094013;28;20143;-63
2023/09/01 04:01:45;;;;;;;0.20;0.20;;;9.20;99.90;;;;;;5094114;28;20117;-62
2023/09/01 04:04:11;;;;;;;0.32;0.32;;;9.40;99.90;;;;;;5094028;28;20100;-63
2023/09/01 04:06:38;;;;;;;0.30;0.30;;;9.40;99.90;;;;;;5094100;28;20207;-62
2023/09/01 04:09:05;;;;;;;0.40;0.40;;;9.60;99.90;;;;;;5093769;28;20476;-62
2023/09/01 04:11:31;;;;;;;0.30;0.30;;;9.00;99.90;;;;;;5093909;28;20102;-63
2023/09/01 04:13:56;;;;;;;0.30;0.30;;;9.30;99.90;;;;;;5093832;28;20052;-62
2023/09/01 04:16:22;;;;;;;0.30;0.30;;;9.40;99.90;;;;;;5093662;28;20092;-62
2023/09/01 04:18:48;;;;;;;0.38;0.38;;;9.30;99.90;;;;;;5093718;28;20044;-62
2023/09/01 04:21:14;;;;;;;0.30;0.30;;;9.50;99.90;;;;;;5093211;28;20044;-61
2023/09/01 04:23:40;;;;;;;0.20;0.20;;;9.30;99.90;;;;;;5093581;28;20040;-61
2023/09/01 04:26:07;;;;;;;0.40;0.40;;;9.20;99.90;;;;;;5093548;28;20133;-62
2023/09/01 04:28:33;;;;;;;0.40;0.40;;;9.80;99.90;;;;;;5093718;28;20490;-62
2023/09/01 04:30:59;;;;;;;;;;;9.60;99.90;;;;;;5093855;28;20040;-61
2023/09/01 04:33:26;;;;;;;0.40;0.40;;;9.40;99.90;;;;;;5093111;28;20427;-62
2023/09/01 04:35:58;;;;;;;0.32;0.32;;;9.20;99.90;;;;;;5093288;28;20052;-62
2023/09/01 04:38:23;;;;;;;0.57;0.57;;;9.60;99.90;;;;;;5093182;28;20400;-62
2023/09/01 04:40:59;;;;;;;0.43;0.43;;;9.60;99.90;;;;;;5093137;28;20044;-62
2023/09/01 04:43:26;;;;;;;0.50;0.50;;;9.50;99.90;;;;;;5093033;28;20047;-62
2023/09/01 04:45:53;;;;;;;0.25;0.25;;;9.40;99.90;;;;;;5093098;28;20048;-62
2023/09/01 04:48:20;;;;;;;0.20;0.20;;;8.90;99.90;;;;;;5093001;28;20135;-62
2023/09/01 04:50:46;;;;;;;7.72;0.45;;;9.50;99.90;;;;;;5091756;28;20048;-62
2023/09/01 04:53:12;;;;;;;0.20;0.20;;;9.00;99.90;;;;;;5091951;28;20113;-62
2023/09/01 04:55:37;;;;;;;;;;;9.40;99.90;;;;;;5092098;28;20055;-62
2023/09/01 04:58:03;;;;;;;0.95;0.93;;;9.60;99.90;;;;;;5092997;28;20287;-63
2023/09/01 05:00:29;;;;;;;0.52;0.52;;;9.70;99.90;;;;;;5092834;28;20047;-62
2023/09/01 05:02:55;;;;;;;0.82;0.82;;;9.20;99.90;;;;;;5073805;28;20056;-63
2023/09/01 05:05:20;;;;;;;0.35;0.35;;;9.40;99.90;;;;;;5092550;28;20128;-62
2023/09/01 05:07:46;;;;;;;0.40;0.40;;;9.40;99.90;;;;;;5092653;28;20059;-63
2023/09/01 05:10:12;;;;;;;0.30;0.30;;;9.70;99.90;;;;;;5091415;28;20066;-62
2023/09/01 05:12:37;;;;;;;0.63;0.52;;;9.30;99.90;;;;;;5092341;28;20040;-62
2023/09/01 05:15:05;;;;;;;1.02;0.75;;;9.30;99.90;;;;;;5092597;28;20044;-62
2023/09/01 05:17:31;;;;;;;0.30;0.30;;;9.50;99.90;;;;;;5092430;28;20080;-63
2023/09/01 05:19:57;;;;;;;0.43;0.43;;;9.60;99.90;;;;;;5092499;28;20052;-62
2023/09/01 05:22:23;;;;;;;;;;;9.40;99.90;;;;;;5092887;28;20051;-62
2023/09/01 05:24:49;;;;;;;0.40;0.40;;;9.10;99.90;;;;;;5092373;28;19923;-61
2023/09/01 05:27:19;;;;;;;0.20;0.20;;;9.30;99.90;;;;;;5092395;28;20480;-62
2023/09/01 05:29:48;;;;;;;0.20;0.20;;;9.10;99.90;;;;;;5092317;28;20108;-63
2023/09/01 05:32:15;;;;;;;0.30;0.30;;;9.80;99.90;;;;;;5092199;28;20055;-62
2023/09/01 05:34:41;;;;;;;0.50;0.50;;;9.60;99.90;;;;;;5092307;28;20391;-62
2023/09/01 05:37:08;;;;;;;0.20;0.20;;;9.60;99.90;;;;;;5092460;28;20050;-62
2023/09/01 05:39:35;;;;;;;0.47;0.47;;;9.60;99.90;;;;;;5092195;28;20084;-62
2023/09/01 05:42:01;;;;;;;1.17;0.45;;;9.70;99.90;;;;;;5092216;28;20452;-62
2023/09/01 05:44:26;;;;;;;0.25;0.25;;;10.10;99.90;;;;;;5091921;28;20106;-63
2023/09/01 05:46:52;;;;;;;0.50;0.50;;;9.70;99.90;;;;;;5091929;28;20047;-63
2023/09/01 05:49:18;;;;;;;0.30;0.30;;;9.60;99.90;;;;;;5102781;28;20475;-62
2023/09/01 05:51:43;;;;;;;0.30;0.30;;;9.90;99.90;;;;;;5092643;28;20047;-62
2023/09/01 05:54:09;;;;;;;0.50;0.50;;;10.20;99.90;;;;;;5090054;28;20040;-63
2023/09/01 05:56:35;;;;;;;0.32;0.32;;;9.90;99.90;;;;;;5090564;28;20046;-63
2023/09/01 05:59:00;;;;;;;0.43;0.43;;;10.40;99.90;;;;;;5091303;28;20478;-65
2023/09/01 06:01:32;;;;;;;0.65;0.65;;;10.40;99.90;;;;;;5091257;28;20052;-62
2023/09/01 06:03:59;;;;;;;0.35;0.35;;;10.60;99.90;;;;;;5090741;28;20138;-62
2023/09/01 06:06:24;;;;;;;;;;;10.40;99.90;;;;;;5091792;28;20052;-64
2023/09/01 06:08:50;;;;;;;0.30;0.30;;;10.40;99.90;;;;;;5090825;28;19989;-62
2023/09/01 06:11:16;;;;;;;0.30;0.30;;;10.30;99.90;;;;;;5091391;28;20114;-63
2023/09/01 06:13:42;;;;;;;0.25;0.25;;;10.80;99.90;;;;;;5091312;28;20048;-62
2023/09/01 06:16:09;;;;;;;0.20;0.20;;;11.20;99.90;;;;;;5090636;28;20056;-62
2023/09/01 06:18:35;;;;;;;0.30;0.30;;;11.20;99.90;;;;;;5090021;28;20432;-63
2023/09/01 06:21:01;;;;;;;0.20;0.20;;;10.70;99.90;;;;;;5090101;28;20131;-62
2023/09/01 06:23:26;;;;;;;0.40;0.40;;;10.60;99.90;;;;;;5090466;28;20060;-62
2023/09/01 06:25:52;;;;;;;0.40;0.40;;;11.30;99.90;;;;;;5091222;28;20094;-62
2023/09/01 06:28:18;;;;;;;0.20;0.20;;;11.00;99.90;;;;;;5090003;28;20403;-62
2023/09/01 06:30:43;;;;;;;0.30;0.30;;;11.20;99.90;;;;;;5090763;28;20044;-61
2023/09/01 06:33:09;;;;;;;0.20;0.20;;;11.10;99.90;;;;;;5088784;28;20530;-65
2023/09/01 06:35:36;;;;;;;0.20;0.20;;;11.20;99.90;;;;;;5082154;28;20049;-63
2023/09/01 06:38:06;;;;;;;0.10;0.10;;;11.80;99.90;;;;;;5074546;28;20084;-62
2023/09/01 06:40:32;;;;;;;0.20;0.20;;;11.40;99.90;;;;;;5082539;28;20062;-62
2023/09/01 06:42:57;;;;;;;0.30;0.30;;;12.00;99.90;;;;;;5070640;28;20119;-63
2023/09/01 06:45:23;;;;;;;0.20;0.20;;;11.90;99.90;;;;;;5092999;28;20551;-61
2023/09/01 06:47:55;;;;;;;0.30;0.30;;;12.00;99.90;;;;;;5107020;28;20082;-61
2023/09/01 06:50:21;;;;;;;0.20;0.20;;;12.00;99.90;;;;;;5090381;28;20079;-60
2023/09/01 06:52:47;;;;;;;;;;;12.10;99.90;;;;;;5091337;28;20040;-62
2023/09/01 06:55:13;;;;;;;0.30;0.30;;;12.60;99.90;;;;;;5090448;28;19931;-61
2023/09/01 06:57:39;;;;;;;0.50;0.50;;;12.50;99.90;;;;;;5090597;28;20086;-61
2023/09/01 07:00:06;;;;;;;0.20;0.20;;;13.00;99.90;;;;;;5091106;28;20075;-61
2023/09/01 07:02:32;;;;;;;0.30;0.30;;;13.10;99.90;;;;;;5091321;28;20160;-62
2023/09/01 07:04:58;;;;;;;0.40;0.40;;;13.20;99.90;;;;;;5090478;28;20071;-62
2023/09/01 07:07:24;;;;;;;0.20;0.20;;;13.40;99.90;;;;;;5090871;28;20040;-61
2023/09/01 07:09:50;;;;;;;0.52;0.52;;;13.60;99.90;;;;;;5090642;28;20036;-62
2023/09/01 07:12:16;;;;;;;0.20;0.20;;;13.60;99.90;;;;;;5090577;28;20043;-61
2023/09/01 07:14:42;;;;;;;0.20;0.20;;;13.60;99.90;;;;;;5090389;28;20079;-61
2023/09/01 07:17:10;;;;;;;0.28;0.28;;;13.70;99.90;;;;;;5089077;28;20048;-63
2023/09/01 07:19:36;;;;;;;0.20;0.20;;;13.90;99.90;;;;;;5090436;28;20553;-61
2023/09/01 07:22:03;;;;;;;0.20;0.20;;;13.50;99.90;;;;;;5089278;28;20044;-61
2023/09/01 07:24:28;;;;;;;0.20;0.20;;;14.00;99.90;;;;;;5090705;28;20101;-62
2023/09/01 07:26:54;;;;;;;0.28;0.28;;;14.10;99.90;;;;;;5091847;28;20078;-62
2023/09/01 07:29:20;;;;;;;4.88;0.50;;;14.00;99.90;;;;;;5085298;28;20109;-61
2023/09/01 07:31:45;;;;;;;0.73;0.30;;;14.20;99.90;;;;;;5093896;28;20149;-61
2023/09/01 07:34:11;;;;;;;0.40;0.40;;;14.60;99.90;;;;;;5093656;28;20480;-61
2023/09/01 07:36:37;;;;;;;0.95;0.95;;;14.50;99.90;;;;;;5092047;28;20144;-61
2023/09/01 07:39:03;;;;;;;0.20;0.20;;;14.60;99.90;;;;;;5093665;28;20040;-61
2023/09/01 07:41:28;;;;;;;0.17;0.17;;;15.30;99.90;;;;;;5093854;28;20078;-62
2023/09/01 07:43:54;;;;;;;0.20;0.20;;;15.00;99.90;;;;;;5092693;28;20042;-63
2023/09/01 07:46:20;;;;;;;;;;;15.10;99.90;;;;;;5093920;28;20503;-62
2023/09/01 07:48:46;;;;;;;0.10;0.10;;;15.50;99.90;;;;;;5093313;28;20014;-62
2023/09/01 07:51:12;;;;;;;0.20;0.20;;;15.30;99.90;;;;;;5093229;28;20048;-61
2023/09/01 07:53:38;;;;;;;0.57;0.32;;;15.70;99.90;;;;;;5093299;28;20449;-61
2023/09/01 07:56:04;;;;;;;;;;;15.30;99.90;;;;;;5093790;28;20083;-62
2023/09/01 07:58:30;;;;;;;0.60;0.30;;;16.10;99.90;;;;;;5090609;28;20358;-62
2023/09/01 08:00:56;;;;;;;;;;;15.80;99.90;;;;;;5093430;28;20400;-62
2023/09/01 08:03:22;;;;;;;0.10;0.10;;;15.80;99.90;;;;;;5093615;28;19927;-61
2023/09/01 08:05:48;;;;;;;0.20;0.20;;;16.00;99.90;;;;;;5091809;28;20488;-61
2023/09/01 08:08:13;;;;;;;;;;;16.20;99.90;;;;;;5094063;28;20083;-62
2023/09/01 08:10:39;;;;;;;0.20;0.20;;;16.10;99.90;;;;;;5093501;28;20319;-61
2023/09/01 08:13:05;;;;;;;;;;;16.10;99.90;;;;;;5093911;28;20507;-63
2023/09/01 08:15:32;;;;;;;1.00;0.20;;;16.50;99.90;;;;;;5093279;28;19924;-62
2023/09/01 08:17:58;;;;;;;0.20;0.20;;;16.60;99.90;;;;;;5091575;28;20444;-62
2023/09/01 08:20:25;;;;;;;0.20;0.20;;;16.40;99.90;;;;;;5093116;28;20095;-62
2023/09/01 08:22:51;;;;;;;0.85;0.20;;;16.30;99.90;;;;;;5093206;28;20059;-62
2023/09/01 08:25:17;;;;;;;0.10;0.10;;;16.40;99.90;;;;;;5093055;28;20052;-62
2023/09/01 08:27:42;;;;;;;;;;;16.40;99.90;;;;;;5092374;28;20385;-62
2023/09/01 08:30:09;;;;;;;0.10;0.10;;;16.50;99.90;;;;;;5092866;28;19943;-62
2023/09/01 08:32:35;;;;;;;0.10;0.10;;;16.40;99.90;;;;;;5093058;28;20054;-62
2023/09/01 08:35:03;;;;;;;0.20;0.20;;;16.50;99.90;;;;;;5092962;28;20046;-62
2023/09/01 08:37:28;;;;;;;0.20;0.20;;;16.50;99.90;;;;;;5091502;28;20070;-63
2023/09/01 08:39:54;;;;;;;;;;;16.30;99.90;;;;;;5093184;28;20040;-61
2023/09/01 08:42:21;;;;;;;0.40;0.40;;;16.20;99.90;;;;;;5092782;28;19974;-62
2023/09/01 08:44:48;;;;;;;0.20;0.20;;;16.50;99.90;;;;;;5092605;28;20135;-62
2023/09/01 08:47:20;;;;;;;0.28;0.28;;;16.80;99.90;;;;;;5092613;28;20058;-62
2023/09/01 08:49:50;;;;;;;0.30;0.30;;;16.60;99.90;;;;;;5092790;28;20767;-62
2023/09/01 08:52:18;;;;;;;0.20;0.20;;;16.70;99.90;;;;;;5092462;28;20040;-61
2023/09/01 08:54:45;;;;;;;0.10;0.10;;;16.40;99.90;;;;;;5092374;28;20127;-63
2023/09/01 08:57:11;;;;;;;0.70;0.60;;;16.50;99.90;;;;;;5092558;28;20048;-61
2023/09/01 08:59:37;;;;;;;0.22;0.20;;;16.40;99.90;;;;;;5092236;28;20122;-61
2023/09/01 09:02:07;;;;;;;;;;;16.80;99.90;;;;;;5092528;28;20444;-62
2023/09/01 09:04:34;;;;;;;0.13;0.13;;;16.60;99.90;;;;;;5091716;28;19931;-62
2023/09/01 09:07:14;;;;;;;0.45;0.28;;;16.70;99.90;;;;;;5092315;28;20541;-62
2023/09/01 09:09:56;;;;;;;0.28;0.20;;;16.70;99.90;;;;;;5092360;28;20127;-61
2023/09/01 09:12:23;;;;;;;0.10;0.10;;;16.50;99.90;;;;;;5091060;28;20084;-61
2023/09/01 09:14:52;;;;;;;0.20;0.20;;;16.80;99.90;;;;;;5091993;28;20452;-62
2023/09/01 09:17:23;;;;;;;0.13;0.13;;;16.80;99.90;;;;;;5092045;28;20093;-62
2023/09/01 09:19:59;;;;;;;0.10;0.10;;;16.40;99.90;;;;;;5092480;28;20407;-61
2023/09/01 09:22:25;;;;;;;5.28;0.40;;;16.80;99.90;;;;;;5092127;28;20056;-62
2023/09/01 09:24:51;;;;;;;0.05;0.05;;;16.40;99.90;;;;;;5091831;28;20103;-62
2023/09/01 09:27:17;;;;;;;;;;;16.70;99.90;;;;;;5092176;28;20416;-61
2023/09/01 09:29:45;;;;;;;0.40;0.40;;;16.90;99.90;;;;;;5092050;28;19924;-62
2023/09/01 09:32:24;;;;;;;0.45;0.30;;;16.50;99.90;;;;;;5091778;28;20044;-62
2023/09/01 09:35:13;;;;;;;0.10;0.10;;;16.80;99.90;;;;;;5091552;28;20515;-62
2023/09/01 09:37:42;;;;;;;0.20;0.20;;;16.70;99.90;;;;;;5090630;28;20404;-62
2023/09/01 09:40:17;;;;;;;0.52;0.28;;;17.10;99.90;;;;;;5091603;28;20408;-61
2023/09/01 09:42:46;;;;;;;0.55;0.30;;;16.80;99.90;;;;;;5091630;28;20131;-62
2023/09/01 09:45:23;;;;;;;0.10;0.10;;;17.20;99.90;;;;;;5091568;28;20048;-62
2023/09/01 09:47:49;;;;;;;0.17;0.17;;;17.00;99.90;;;;;;5091412;28;20048;-62
2023/09/01 09:50:19;;;;;;;0.20;0.20;;;17.40;99.90;;;;;;5091063;28;20430;-61
2023/09/01 09:52:51;;;;;;;0.30;0.30;;;17.00;99.90;;;;;;5091400;28;20123;-61
2023/09/01 09:55:44;;;;;;;0.20;0.20;;;17.40;99.90;;;;;;5091447;28;20060;-62
2023/09/01 09:58:11;;;;;;;0.20;0.20;;;17.50;99.90;;;;;;5091553;28;20047;-61
2023/09/01 10:00:42;;;;;;;0.43;0.40;;;17.20;99.90;;;;;;5091227;28;20051;-62
2023/09/01 10:03:08;;;;;;;0.10;0.10;;;17.70;99.90;;;;;;5090877;28;20475;-62
2023/09/01 10:05:35;;;;;;;0.10;0.10;;;17.70;99.90;;;;;;5091450;28;20055;-61
2023/09/01 10:08:04;;;;;;;0.20;0.20;;;17.30;99.90;;;;;;5091159;28;20063;-62
2023/09/01 10:10:34;;;;;;;0.10;0.10;;;17.80;99.90;;;;;;5091340;28;20047;-62
2023/09/01 10:13:07;;;;;;;0.10;0.10;;;18.20;99.90;;;;;;5091127;28;20044;-62
2023/09/01 10:15:35;;;;;;;0.17;0.17;;;18.20;99.90;;;;;;5091926;28;20062;-61
2023/09/01 10:18:03;;;;;;;0.10;0.10;;;18.10;99.90;;;;;;5091035;28;20153;-62
2023/09/01 10:20:30;;;;;;;0.10;0.10;;;18.30;99.90;;;;;;5091752;28;20437;-61
2023/09/01 10:22:56;;;;;;;0.10;0.10;;;18.80;99.90;;;;;;5091643;28;20492;-62
2023/09/01 10:25:22;;;;;;;0.25;0.20;;;18.60;99.90;;;;;;5091611;28;20055;-62
2023/09/01 10:28:00;;;;;;;0.40;0.15;;;18.40;99.90;;;;;;5091581;28;20044;-62
2023/09/01 10:30:31;;;;;;;0.10;0.10;;;18.20;99.90;;;;;;5091491;28;20043;-62
2023/09/01 10:33:08;;;;;;;0.10;0.10;;;18.50;99.90;;;;;;5091491;28;20157;-62
2023/09/01 10:35:50;;;;;;;0.30;0.30;;;18.40;99.90;;;;;;5091348;28;20112;-62
2023/09/01 10:38:32;;;;;;;1.00;0.40;;;18.80;99.90;;;;;;5091407;28;20106;-61
2023/09/01 10:40:58;;;;;;;0.17;0.17;;;18.70;99.90;;;;;;5091461;28;20048;-61
2023/09/01 10:43:37;;;;;;;0.20;0.20;;;18.90;99.90;;;;;;5091301;28;20044;-61
2023/09/01 10:46:14;;;;;;;0.20;0.20;;;18.80;99.90;;;;;;5091372;28;20117;-62
2023/09/01 10:49:00;;;;;;;0.28;0.28;;;19.20;99.90;;;;;;5091186;28;20066;-62
2023/09/01 10:51:30;;;;;;;0.10;0.10;;;19.10;99.90;;;;;;5091273;28;20134;-62
2023/09/01 10:54:02;;;;;;;0.05;0.05;;;18.70;99.90;;;;;;5091146;28;20122;-62
2023/09/01 10:56:30;;;;;;;0.00;0.00;;;19.00;99.90;;;;;;5089678;28;20126;-66
2023/09/01 10:58:57;;;;;;;0.08;0.08;;;19.00;99.90;;;;;;5090096;28;20283;-61
2023/09/01 11:01:30;;;;;;;0.15;0.15;;;19.20;99.90;;;;;;5090682;28;20527;-62
2023/09/01 11:04:16;;;;;;;0.05;0.05;;;19.20;99.90;;;;;;5094576;28;20488;-62
2023/09/01 11:06:57;;;;;;;0.20;0.20;;;19.60;99.90;;;;;;5094863;28;20055;-62
2023/09/01 11:09:42;;;;;;;0.10;0.10;;;19.80;99.90;;;;;;5094969;28;20127;-62
2023/09/01 11:12:13;;;;;;;0.22;0.22;;;19.30;99.90;;;;;;5094974;28;20552;-62
2023/09/01 11:14:53;;;;;;;0.10;0.10;;;19.90;99.90;;;;;;5095301;28;20050;-62
2023/09/01 11:17:43;;;;;;;0.00;0.00;;;20.20;99.90;;;;;;5094886;28;20523;-62
2023/09/01 11:20:10;;;;;;;0.03;0.03;;;20.10;99.90;;;;;;5094817;28;20071;-62
2023/09/01 11:22:42;;;;;;;2.00;0.30;;;20.00;99.90;;;;;;5094784;28;20403;-63
2023/09/01 11:25:16;;;;;;;0.20;0.20;;;20.00;99.90;;;;;;5094659;28;20086;-63
2023/09/01 11:27:46;;;;;;;0.20;0.10;;;19.60;99.90;;;;;;5094602;28;20087;-62
2023/09/01 11:30:17;;;;;;;0.13;0.13;;;19.60;99.90;;;;;;5094713;28;20099;-62
2023/09/01 11:32:42;;;;;;;0.65;0.65;;;19.50;99.90;;;;;;5094408;28;20087;-63
2023/09/01 11:35:21;;;;;;;0.10;0.10;;;19.40;99.90;;;;;;5094148;28;20095;-62
2023/09/01 11:37:46;;;;;;;0.10;0.10;;;19.80;99.90;;;;;;5094543;28;20051;-62
2023/09/01 11:40:13;;;;;;;0.10;0.10;;;19.80;99.90;;;;;;5094608;28;20056;-64
2023/09/01 11:42:42;;;;;;;0.03;0.03;;;20.00;99.90;;;;;;5094431;28;20523;-62
2023/09/01 11:45:09;;;;;;;0.17;0.10;;;19.70;99.90;;;;;;5094143;28;20059;-62
2023/09/01 11:47:35;;;;;;;0.20;0.20;;;19.70;99.90;;;;;;5093936;28;20048;-62
2023/09/01 11:50:02;;;;;;;0.43;0.43;;;19.90;99.90;;;;;;5093997;28;20044;-62
2023/09/01 11:52:27;;;;;;;0.10;0.10;;;19.90;99.90;;;;;;5093926;28;20082;-62
2023/09/01 11:54:54;;;;;;;0.10;0.10;;;20.00;99.90;;;;;;5093989;28;20088;-62
2023/09/01 11:57:21;;;;;;;0.05;0.05;;;19.80;99.90;;;;;;5093726;28;20055;-62
2023/09/01 11:59:48;;;;;;;0.10;0.10;;;19.90;99.90;;;;;;5093494;28;20048;-62
2023/09/01 12:02:18;;;;;;;0.00;0.00;;;20.00;99.90;;;;;;5093487;28;20095;-63
2023/09/01 12:04:50;;;;;;;0.20;0.20;;;19.80;99.90;;;;;;5093162;28;20075;-62
2023/09/01 12:07:30;;;;;;;0.10;0.10;;;20.00;99.90;;;;;;5092983;28;20052;-62
2023/09/01 12:09:56;;;;;;;0.00;0.00;;;20.60;99.90;;;;;;5093454;28;20044;-62
2023/09/01 12:12:22;;;;;;;0.10;0.10;;;20.20;99.90;;;;;;5093097;28;20090;-63
2023/09/01 12:14:48;;;;;;;0.10;0.10;;;20.30;99.90;;;;;;5093437;28;20047;-62
2023/09/01 12:17:18;;;;;;;0.10;0.10;;;20.40;99.90;;;;;;5093512;28;20064;-62
2023/09/01 12:19:52;;;;;;;0.10;0.10;;;20.80;99.90;;;;;;5093573;28;20112;-62
2023/09/01 12:22:20;;;;;;;0.93;0.45;;;21.00;99.90;;;;;;5093487;28;20052;-62
2023/09/01 12:24:54;;;;;;;0.00;0.00;;;20.70;99.90;;;;;;5093534;28;20040;-62
2023/09/01 12:27:20;;;;;;;0.20;0.20;;;21.00;99.90;;;;;;5093591;28;20047;-62
2023/09/01 12:29:46;;;;;;;0.08;0.08;;;21.10;99.90;;;;;;5093294;28;20048;-62
2023/09/01 12:32:12;;;;;;;0.17;0.17;;;21.40;99.90;;;;;;5093213;28;20182;-63
2023/09/01 12:34:38;;;;;;;0.05;0.05;;;20.90;99.90;;;;;;5093101;28;20135;-61
2023/09/01 12:37:04;;;;;;;0.00;0.00;;;21.20;99.90;;;;;;5091674;28;20036;-62
2023/09/01 12:39:30;;;;;;;1.08;0.43;;;21.20;99.90;;;;;;5092916;28;20058;-62
2023/09/01 12:41:56;;;;;;;0.20;0.20;;;21.50;99.90;;;;;;5092886;28;20059;-63
2023/09/01 12:44:21;;;;;;;0.10;0.10;;;21.80;99.90;;;;;;5092749;28;20403;-63
2023/09/01 12:46:47;;;;;;;0.40;0.40;;;21.30;99.90;;;;;;5092786;28;20044;-62
2023/09/01 12:49:13;;;;;;;0.55;0.47;;;21.20;99.90;;;;;;5092703;28;20055;-61
2023/09/01 12:51:42;;;;;;;0.10;0.10;;;21.10;99.90;;;;;;5092097;28;20048;-62
2023/09/01 12:54:07;;;;;;;0.35;0.28;;;21.20;99.90;;;;;;5091907;28;20097;-62
2023/09/01 12:56:33;;;;;;;0.05;0.05;;;20.60;99.90;;;;;;5092545;28;20089;-62
2023/09/01 12:58:59;;;;;;;0.30;0.30;;;21.20;99.90;;;;;;5092547;28;20075;-62